Latest Weather Observations for Douglas River

IDD60801

Issued at 1:01 pm CST Friday 19 January 2018 (issued every 30 minutes, with the page automatically refreshed every 10 minutes)

About weather observations | Map of weather stations | Latest weather observations for NT | Other Formats
Station Details ID: 014901 Name: DOUGLAS RIVER RESEARCH FARM Lat: -13.83 Lon: 131.19 Height: 42.8 m
Data from the previous 72 hours. | See also: Recent months at Douglas River
Date/Time
CST
Temp
°C
App
Temp
°C
Dew
Point
°C
Rel
Hum
%
Delta-T
°C
Wind Press
QNH
hPa
Press
MSL
hPa
Rain since
9am
mm
Dir  Spd
km/h
Gust
km/h
Spd
kts
Gust
kts
19/01:00pm 31.0 35.1 22.3 60 5.9 SW 4 11 2 6 1005.7 1005.4 0.0
19/12:30pm 30.7 34.9 23.1 64 5.2 ESE 6 11 3 6 1006.0 1005.7 0.0
19/12:00pm 30.5 34.4 24.2 69 4.4 SE 11 17 6 9 1006.5 1006.2 0.0
19/11:30am 30.0 33.5 22.9 65 4.9 SE 9 15 5 8 1006.9 1006.6 0.0
19/11:00am 29.5 33.1 23.0 68 4.5 ESE 9 19 5 10 1007.2 1006.9 0.0
19/10:30am 28.4 31.8 23.3 74 3.5 ESE 11 15 6 8 1007.4 1007.1 0.0
19/10:00am 28.0 32.4 24.4 81 2.5 ESE 9 13 5 7 1007.6 1007.3 0.0
19/09:30am 26.9 30.7 24.0 84 2.0 SSE 11 15 6 8 1007.8 1007.5 0.0
19/09:00am 26.6 30.4 24.1 86 1.7 E 11 15 6 8 1007.8 1007.5 14.6
19/08:30am 26.1 30.3 24.1 89 1.4 E 9 11 5 6 1007.6 1007.3 14.6
19/08:00am 25.7 29.6 24.3 92 1.0 E 11 15 6 8 1007.5 1007.2 14.6
19/07:30am 25.1 29.6 23.9 93 0.8 E 7 11 4 6 1007.2 1006.9 14.6
19/07:00am 24.6 29.3 23.9 96 0.5 E 6 7 3 4 1006.8 1006.5 14.6
19/06:30am 24.5 29.1 23.8 96 0.5 E 6 7 3 4 1006.6 1006.3 14.6
19/06:00am 24.6 28.8 24.1 97 0.3 ESE 9 11 5 6 1006.4 1006.1 14.4
19/05:30am 24.5 30.2 23.8 96 0.5 CALM 0 0 0 0 1006.0 1005.7 14.4
19/05:00am 24.4 30.1 23.7 96 0.5 CALM 0 0 0 0 1005.5 1005.2 14.4
19/04:30am 24.4 30.1 23.7 96 0.5 CALM 0 0 0 0 1005.1 1004.8 14.4
19/04:00am 24.4 28.9 23.7 96 0.5 WNW 6 7 3 4 1005.0 1004.7 14.4
19/03:30am 24.4 28.4 23.7 96 0.5 WSW 9 13 5 7 1005.2 1004.9 14.4
19/03:00am 24.4 28.4 23.7 96 0.5 SSW 9 11 5 6 1005.6 1005.3 14.4
19/02:30am 24.4 29.3 23.7 96 0.5 WNW 4 7 2 4 1005.8 1005.5 14.4
19/02:00am 24.5 30.2 23.8 96 0.5 CALM 0 0 0 0 1006.1 1005.8 14.4
19/01:30am 24.5 28.0 23.6 95 0.6 SSE 11 15 6 8 1006.9 1006.6 14.4
19/01:00am 24.7 28.3 23.8 95 0.6 SE 11 13 6 7 1007.4 1007.1 14.4
19/12:30am 24.8 28.9 23.9 95 0.6 E 9 11 5 6 1007.6 1007.3 14.4
19/12:00am 24.8 30.6 23.9 95 0.6 CALM 0 6 0 3 1008.0 1007.7 14.4
 
Date/Time
CST
Temp
°C
App
Temp
°C
Dew
Point
°C
Rel
Hum
%
Delta-T
°C
Wind Press
QNH
hPa
Press
MSL
hPa
Rain since
9am
mm
Dir  Spd
km/h
Gust
km/h
Spd
kts
Gust
kts
18/11:30pm 24.8 30.6 23.9 95 0.6 CALM 0 4 0 2 1008.0 1007.7 14.4
18/11:00pm 24.7 30.1 23.8 95 0.6 NNE 2 7 1 4 1008.1 1007.8 14.4
18/10:30pm 24.8 30.5 23.8 94 0.7 CALM 0 0 0 0 1008.4 1008.1 14.2
18/10:00pm 24.7 30.4 23.7 94 0.7 CALM 0 0 0 0 1008.2 1007.9 13.8
18/09:30pm 24.7 29.6 23.7 94 0.7 NNE 4 7 2 4 1007.9 1007.6 13.8
18/09:00pm 24.4 28.1 23.2 93 0.8 N 9 13 5 7 1007.2 1006.9 13.8
18/08:30pm 24.8 28.1 23.2 91 1.1 NNE 11 17 6 9 1007.0 1006.7 13.0
18/08:00pm 25.1 28.1 23.3 90 1.2 NE 13 22 7 12 1006.8 1006.5 13.0
18/07:30pm 26.0 30.0 23.7 87 1.6 ENE 9 17 5 9 1005.8 1005.5 12.4
18/07:00pm 26.4 30.7 23.7 85 1.9 ENE 7 11 4 6 1005.4 1005.1 12.0
18/06:30pm 28.1 30.3 23.9 78 2.9 E 19 30 10 16 1004.8 1004.5 12.0
18/06:00pm 27.8 33.5 25.6 88 1.6 NNE 6 11 3 6 1004.1 1003.7 12.0
18/05:30pm 27.1 32.5 25.5 91 1.1 N 7 9 4 5 1004.1 1003.7 12.0
18/05:00pm 25.8 29.8 23.8 89 1.4 NNW 9 15 5 8 1003.5 1003.1 12.0
18/04:30pm 26.1 31.0 24.7 92 1.0 N 7 11 4 6 1003.9 1003.5 6.4
18/04:00pm 26.6 30.9 24.3 87 1.6 NE 9 13 5 7 1004.2 1003.8 0.8
18/03:30pm 28.7 32.2 23.6 74 3.5 NE 11 17 6 9 1003.9 1003.5 0.0
18/03:00pm 32.3 36.0 23.3 59 6.2 SSW 9 15 5 8 1004.0 1003.6 0.0
18/02:30pm 31.4 35.1 23.2 61 5.7 SSW 9 13 5 7 1004.3 1003.9 0.0
18/02:00pm 31.8 36.0 24.1 63 5.4 SSW 9 15 5 8 1004.9 1004.6 0.0
18/01:30pm 31.0 35.1 23.9 66 4.9 SSW 9 17 5 9 1005.4 1005.1 0.0
18/01:00pm 30.3 34.6 24.2 70 4.3 SSW 9 13 5 7 1005.8 1005.5 0.0
18/12:30pm 29.7 33.8 24.6 74 3.6 SW 11 15 6 8 1006.0 1005.7 0.0
18/12:00pm 29.5 33.1 24.4 74 3.6 S 13 15 7 8 1006.2 1005.9 0.0
18/11:30am 29.8 34.2 24.4 73 3.8 S 9 11 5 6 1006.4 1006.1 0.0
18/11:00am 29.4 34.0 23.1 69 4.3 E 4 7 2 4 1006.8 1006.5 0.0
18/10:30am 29.3 33.0 23.3 70 4.1 ESE 9 13 5 7 1007.1 1006.8 0.0
18/10:00am 28.9 33.7 24.2 76 3.3 ENE 6 9 3 5 1007.3 1007.0 0.0
18/09:30am 27.9 32.7 24.5 82 2.4 SSE 7 9 4 5 1007.7 1007.4 0.0
18/09:00am 27.3 32.7 25.1 88 1.5 ESE 6 7 3 4 1007.6 1007.3 13.4
18/08:30am 26.3 32.3 24.3 89 1.4 CALM 0 0 0 0 1007.1 1006.8 13.4
18/08:00am 25.6 31.4 24.6 94 0.7 SSE 2 6 1 3 1006.9 1006.6 13.4
18/07:30am 24.6 30.0 23.9 96 0.5 SSW 2 7 1 4 1006.6 1006.3 13.4
18/07:00am 24.3 29.9 23.6 96 0.5 CALM 0 0 0 0 1006.1 1005.8 13.4
18/06:30am 24.3 29.9 23.6 96 0.5 CALM 0 0 0 0 1005.7 1005.4 13.4
18/06:00am 24.4 30.1 23.7 96 0.5 CALM 0 0 0 0 1005.8 1005.5 13.4
18/05:30am 24.4 29.7 23.7 96 0.5 NNW 2 6 1 3 1005.7 1005.4 13.4
18/05:00am 24.5 28.5 23.8 96 0.5 ESE 9 11 5 6 1005.6 1005.3 13.4
18/04:30am 24.4 28.0 23.7 96 0.5 SE 11 11 6 6 1005.6 1005.3 13.4
18/04:00am 24.2 28.4 23.5 96 0.5 SSE 7 9 4 5 1005.8 1005.5 13.4
18/03:30am 24.5 28.8 23.6 95 0.6 SSE 7 9 4 5 1005.9 1005.6 13.4
18/03:00am 24.9 30.7 24.0 95 0.6 CALM 0 0 0 0 1006.2 1005.9 13.4
18/02:30am 24.7 30.0 23.7 94 0.7 SE 2 6 1 3 1006.2 1005.9 13.4
18/02:00am 24.9 29.4 24.0 95 0.6 ESE 7 9 4 5 1006.6 1006.3 13.4
18/01:30am 24.8 29.4 24.1 96 0.5 ESE 7 9 4 5 1006.8 1006.5 13.4
18/01:00am 24.7 30.4 23.8 95 0.6 CALM 0 6 0 3 1007.0 1006.7 13.4
18/12:30am 24.7 30.4 23.7 94 0.7 CALM 0 0 0 0 1007.0 1006.7 13.4
18/12:00am 24.7 29.2 23.7 94 0.7 SSW 6 9 3 5 1007.3 1007.0 13.4
 
Date/Time
CST
Temp
°C
App
Temp
°C
Dew
Point
°C
Rel
Hum
%
Delta-T
°C
Wind Press
QNH
hPa
Press
MSL
hPa
Rain since
9am
mm
Dir  Spd
km/h
Gust
km/h
Spd
kts
Gust
kts
17/11:30pm 24.9 30.6 23.7 93 0.8 CALM 0 7 0 4 1007.5 1007.2 13.4
17/11:00pm 24.6 29.7 23.4 93 0.8 SW 2 7 1 4 1007.1 1006.8 13.4
17/10:30pm 24.7 29.8 23.3 92 1.0 WSW 2 7 1 4 1006.6 1006.3 13.4
17/10:00pm 24.6 30.1 23.4 93 0.8 CALM 0 0 0 0 1006.4 1006.1 13.2
17/09:30pm 24.7 30.3 23.5 93 0.8 CALM 0 0 0 0 1006.2 1005.9 13.2
17/09:00pm 24.7 28.9 23.1 91 1.1 N 6 9 3 5 1005.8 1005.5 13.0
17/08:30pm 24.8 27.2 23.0 90 1.2 NNW 15 22 8 12 1005.4 1005.1 13.0
17/08:00pm 26.4 30.4 23.7 85 1.9 ENE 9 15 5 8 1005.9 1005.6 0.2
17/07:30pm 26.1 28.8 21.3 75 3.2 NW 9 17 5 9 1004.8 1004.5 0.2
17/07:00pm 26.9 30.2 22.5 77 3.0 W 9 15 5 8 1004.3 1003.9 0.2
17/06:30pm 27.2 30.3 22.8 77 3.0 E 11 17 6 9 1003.9 1003.5 0.2
17/06:00pm 27.5 29.9 22.2 73 3.6 S 13 19 7 10 1002.9 1002.5 0.2
17/05:30pm 31.0 37.1 25.6 73 3.8 SW 4 11 2 6 1002.9 1002.5 0.2
17/05:00pm 32.0 38.6 25.3 67 4.7 CALM 0 0 0 0 1002.7 1002.3 0.2
17/04:30pm 32.5 38.3 24.0 61 6.0 CALM 0 0 0 0 1002.4 1002.0 0.2
17/04:00pm 32.8 37.5 24.0 60 6.2 NE 6 9 3 5 1002.4 1002.0 0.2
17/03:30pm 33.2 38.4 23.5 56 6.8 NNE 2 9 1 5 1002.7 1002.3 0.2
17/03:00pm 33.4 38.2 22.8 53 7.3 NE 2 7 1 4 1003.5 1003.1 0.2
17/02:30pm 33.6 39.4 23.9 57 6.8 CALM 0 7 0 4 1004.2 1003.8 0.2
17/02:00pm 32.9 37.8 24.6 61 5.8 WNW 7 11 4 6 1004.4 1004.0 0.2
17/01:30pm 32.6 38.2 24.9 64 5.5 NNE 4 11 2 6 1004.6 1004.3 0.2
17/01:00pm 31.5 35.9 24.4 66 5.0 NNE 9 13 5 7 1004.7 1004.4 0.2
17/12:30pm 31.0 35.3 23.6 64 5.1 WNW 7 11 4 6 1004.9 1004.6 0.2
17/12:00pm 30.8 35.3 24.0 67 4.7 SSW 7 15 4 8 1005.0 1004.7 0.2
17/11:30am 29.8 34.0 23.5 69 4.4 S 7 13 4 7 1005.2 1004.9 0.2
17/11:00am 28.4 33.2 23.5 75 3.4 WSW 4 9 2 5 1005.2 1004.9 0.2
17/10:30am 27.8 31.9 23.2 76 3.2 SSE 7 11 4 6 1005.3 1005.0 0.0
17/10:00am 26.5 31.4 23.0 81 2.4 ESE 2 7 1 4 1005.2 1004.9 0.0
17/09:30am 25.2 30.1 22.3 84 2.0 CALM 0 6 0 3 1005.5 1005.2 0.0
17/09:00am 25.1 29.5 23.5 91 1.1 ESE 6 9 3 5 1006.1 1005.8 3.2
17/08:30am 24.8 30.3 23.4 92 1.0 CALM 0 0 0 0 1006.2 1005.9 3.0
17/08:00am 24.6 29.3 23.4 93 0.8 N 4 9 2 5 1006.3 1006.0 2.8
17/07:30am 24.7 29.1 23.5 93 0.8 NNE 6 7 3 4 1006.6 1006.3 1.8
17/07:00am 24.7 28.8 23.3 92 1.0 NNE 7 9 4 5 1006.5 1006.2 1.8
17/06:30am 24.8 29.0 23.4 92 1.0 NNW 7 9 4 5 1006.3 1006.0 1.8
17/06:00am 24.5 27.5 23.3 93 0.8 SW 13 17 7 9 1006.3 1006.0 1.8
17/05:30am 24.5 28.8 23.3 93 0.8 E 6 9 3 5 1005.6 1005.3 1.8
17/05:00am 24.6 30.0 23.2 92 0.9 CALM 0 0 0 0 1004.9 1004.6 1.8
17/04:30am 24.6 29.2 23.2 92 1.0 N 4 7 2 4 1005.0 1004.7 1.8
17/04:00am 24.6 28.8 23.4 93 0.8 ESE 7 11 4 6 1004.5 1004.1 1.8
17/03:30am 24.7 29.6 23.1 91 1.1 E 2 7 1 4 1004.4 1004.0 1.8
17/03:00am 25.1 29.2 23.0 88 1.4 NNE 6 7 3 4 1004.6 1004.3 1.8
17/02:30am 25.4 28.3 23.1 87 1.6 NNW 13 20 7 11 1004.8 1004.5 1.8
17/02:00am 25.5 28.5 23.4 88 1.4 NNW 13 24 7 13 1005.0 1004.7 1.8
17/01:30am 25.3 28.9 23.7 91 1.1 ENE 11 20 6 11 1006.0 1005.7 1.8
17/01:00am 25.2 30.4 24.2 94 0.7 ENE 4 7 2 4 1005.5 1005.2 1.8
17/12:30am 25.2 30.9 23.8 92 1.0 CALM 0 0 0 0 1005.6 1005.3 1.8
17/12:00am 25.2 31.0 24.0 93 0.8 CALM 0 0 0 0 1006.3 1006.0 1.8
 
Date/Time
CST
Temp
°C
App
Temp
°C
Dew
Point
°C
Rel
Hum
%
Delta-T
°C
Wind Press
QNH
hPa
Press
MSL
hPa
Rain since
9am
mm
Dir  Spd
km/h
Gust
km/h
Spd
kts
Gust
kts
16/11:30pm 25.1 30.9 23.9 93 0.8 CALM 0 6 0 3 1006.6 1006.3 1.8
16/11:00pm 25.0 30.0 23.8 93 0.8 WNW 4 9 2 5 1006.2 1005.9 1.8
16/10:30pm 25.0 29.4 23.8 93 0.8 W 7 11 4 6 1005.3 1005.0 1.8
16/10:00pm 25.1 29.6 23.9 93 0.8 ESE 7 13 4 7 1005.1 1004.8 1.8
16/09:30pm 25.0 30.6 23.6 92 1.0 CALM 0 7 0 4 1004.8 1004.5 1.8
16/09:00pm 24.6 28.8 23.2 92 1.0 ESE 6 9 3 5 1004.5 1004.1 1.8
16/08:30pm 24.5 28.8 22.6 89 1.3 ENE 4 9 2 5 1004.4 1004.0 1.8
16/08:00pm 24.8 26.6 21.9 84 1.9 N 15 22 8 12 1004.1 1003.7 1.8
16/07:30pm 25.0 27.6 21.9 83 2.1 NNE 11 17 6 9 1004.3 1003.9 1.6
16/07:00pm 28.7 29.4 22.9 71 4.0 E 24 35 13 19 1004.0 1003.6 0.0
16/06:30pm 30.8 33.2 23.7 66 4.9 W 17 24 9 13 1002.4 1002.0 0.0
16/06:00pm 32.4 37.7 25.2 66 5.1 WNW 7 11 4 6 1001.9 1001.5 0.0
16/05:30pm 33.2 39.1 24.7 61 6.0 N 2 6 1 3 1001.5 1001.1 0.0
16/05:00pm 35.1 40.0 22.4 47 8.7 CALM 0 0 0 0 1001.4 1001.0 0.0
16/04:30pm 36.0 39.9 22.5 45 9.4 W 6 9 3 5 1001.2 1000.8 0.0
16/04:00pm 35.9 39.7 22.8 46 9.1 W 7 11 4 6 1001.6 1001.2 0.0
16/03:30pm 35.3 39.6 23.6 50 8.2 W 7 11 4 6 1001.8 1001.4 0.0
16/03:00pm 35.5 40.7 24.8 54 7.6 WSW 6 9 3 5 1002.3 1001.9 0.0
16/02:30pm 34.9 38.8 22.9 49 8.3 ESE 7 15 4 8 1003.0 1002.6 0.0
16/02:00pm 34.8 39.8 23.8 53 7.7 NNW 4 13 2 7 1003.7 1003.3 0.0
16/01:30pm 33.8 38.7 24.7 59 6.4 NW 7 13 4 7 1004.2 1003.8 0.0

Other Formats:

Comma delimited format used in spreadsheet applications
http://www.bom.gov.au/fwo/IDD60801/IDD60801.94128.axf

JavaScript Object Notation format (JSON) in row-major order
http://www.bom.gov.au/fwo/IDD60801/IDD60801.94128.json